createdAt,value
2022-08-10T00:01:00.228Z,19.90
2022-08-10T00:06:04.609Z,19.80
2022-08-10T00:11:15.421Z,19.70
2022-08-10T00:16:22.833Z,19.70
2022-08-10T00:21:27.376Z,19.60
2022-08-10T00:27:51.681Z,19.60
2022-08-10T00:31:59.657Z,19.50
2022-08-10T00:37:04.459Z,19.30
2022-08-10T00:42:11.469Z,19.20
2022-08-10T00:47:36.257Z,19.10
2022-08-10T00:52:43.972Z,19.00
2022-08-10T00:57:54.963Z,19.00
2022-08-10T01:03:01.601Z,19.00
2022-08-10T01:08:32.834Z,19.00
2022-08-10T01:13:45.545Z,18.90
2022-08-10T01:19:02.261Z,18.70
2022-08-10T01:24:51.261Z,18.50
2022-08-10T01:30:04.411Z,18.30
2022-08-10T01:35:18.039Z,17.90
2022-08-10T01:40:28.459Z,17.60
2022-08-10T01:45:45.123Z,17.40
2022-08-10T01:50:59.560Z,17.50
2022-08-10T01:56:08.476Z,17.50
2022-08-10T02:01:20.977Z,17.40
2022-08-10T02:06:29.045Z,17.40
2022-08-10T02:11:55.613Z,17.50
2022-08-10T02:17:02.416Z,17.40
2022-08-10T02:22:36.412Z,17.10
2022-08-10T02:27:38.153Z,17.00
2022-08-10T02:32:52.676Z,16.80
2022-08-10T02:38:07.226Z,16.60
2022-08-10T02:45:20.367Z,16.50
2022-08-10T02:48:59.636Z,16.60
2022-08-10T02:54:10.376Z,16.50
2022-08-10T02:59:23.575Z,16.30
2022-08-10T03:04:55.872Z,16.20
2022-08-10T03:10:04.547Z,16.10
2022-08-10T03:15:20.578Z,16.20
2022-08-10T03:20:36.649Z,16.20
2022-08-10T03:25:53.536Z,16.10
2022-08-10T03:31:01.905Z,16.20
2022-08-10T03:36:41.826Z,16.30
2022-08-10T03:41:41.739Z,16.10
2022-08-10T03:47:01.880Z,15.80
2022-08-10T03:52:09.167Z,15.80
2022-08-10T03:57:14.979Z,15.70
2022-08-10T04:02:44.273Z,15.60
2022-08-10T04:07:48.084Z,15.60
2022-08-10T04:12:52.835Z,15.60
2022-08-10T04:18:05.876Z,15.70
2022-08-10T04:23:20.184Z,15.70
2022-08-10T04:28:26.182Z,15.60
2022-08-10T04:33:34.567Z,15.50
2022-08-10T04:38:44.154Z,15.60
2022-08-10T04:43:48.993Z,15.60
2022-08-10T04:48:59.660Z,15.70
2022-08-10T04:54:08.444Z,15.80
2022-08-10T04:59:13.993Z,15.90
2022-08-10T05:04:38.498Z,16.00
2022-08-10T05:10:01.227Z,16.20
2022-08-10T05:15:12.204Z,16.40
2022-08-10T05:20:16.994Z,16.60
2022-08-10T05:25:22.893Z,17.00
2022-08-10T05:30:27.556Z,17.20
2022-08-10T05:35:56.248Z,17.20
2022-08-10T05:40:59.106Z,17.40
2022-08-10T05:46:17.054Z,17.50
2022-08-10T05:51:26.015Z,17.70
2022-08-10T05:56:53.435Z,17.80
2022-08-10T06:02:32.709Z,17.90
2022-08-10T06:07:28.307Z,18.20
2022-08-10T06:12:55.718Z,18.40
2022-08-10T06:18:03.840Z,18.60
2022-08-10T06:23:09.144Z,18.90
2022-08-10T06:28:18.940Z,19.30
2022-08-10T06:33:26.425Z,19.50
2022-08-10T06:38:34.846Z,19.70
2022-08-10T06:43:46.913Z,19.90
2022-08-10T06:49:01.396Z,20.20
2022-08-10T06:54:10.156Z,20.80
2022-08-10T06:59:27.087Z,21.50
2022-08-10T07:04:38.038Z,22.40
2022-08-10T07:09:45.099Z,23.20
2022-08-10T07:14:53.499Z,23.90
2022-08-10T07:20:01.766Z,24.70
2022-08-10T07:25:11.844Z,25.20
2022-08-10T07:30:17.553Z,25.70
2022-08-10T07:35:24.037Z,26.20
2022-08-10T07:40:29.047Z,26.30
2022-08-10T07:45:36.843Z,26.70
2022-08-10T07:50:43.662Z,27.20
2022-08-10T07:56:02.059Z,27.70
2022-08-10T08:01:18.868Z,28.40
2022-08-10T08:06:24.103Z,28.80
2022-08-10T08:11:30.303Z,29.70
2022-08-10T08:16:38.886Z,29.60
2022-08-10T08:24:05.949Z,30.20
2022-08-10T08:27:11.947Z,31.00
2022-08-10T08:32:22.717Z,31.80
2022-08-10T08:38:30.200Z,32.40
2022-08-10T08:43:28.483Z,32.40
2022-08-10T08:49:00.097Z,33.10
2022-08-10T08:54:39.923Z,33.60
2022-08-10T09:00:05.214Z,34.10
2022-08-10T09:05:58.474Z,34.60
2022-08-10T09:11:05.657Z,34.50
2022-08-10T09:16:24.207Z,35.60
2022-08-10T09:21:43.125Z,35.70
2022-08-10T09:26:52.555Z,36.60
2022-08-10T09:35:39.246Z,37.20
2022-08-10T09:38:02.039Z,37.60
2022-08-10T09:43:25.336Z,37.70
2022-08-10T09:48:42.497Z,38.30
2022-08-10T09:54:04.381Z,39.00
2022-08-10T09:59:29.308Z,38.70
2022-08-10T10:04:59.812Z,38.90
2022-08-10T10:10:14.226Z,39.60
2022-08-10T10:15:32.671Z,39.90
2022-08-10T10:20:52.569Z,39.20
2022-08-10T10:26:18.726Z,39.20
2022-08-10T10:31:39.432Z,41.30
2022-08-10T10:36:46.840Z,41.80
2022-08-10T10:42:14.644Z,42.80
2022-08-10T10:47:50.402Z,42.30
2022-08-10T10:53:11.814Z,41.80
2022-08-10T10:58:28.651Z,40.70
2022-08-10T11:03:53.644Z,41.30
2022-08-10T11:09:06.399Z,41.40
2022-08-10T11:14:29.544Z,42.30
2022-08-10T11:20:00.531Z,41.50
2022-08-10T11:25:21.382Z,41.70
2022-08-10T11:30:40.900Z,43.00
2022-08-10T11:35:49.648Z,40.70
2022-08-10T11:42:05.819Z,42.60
2022-08-10T11:46:43.686Z,43.90
2022-08-10T11:51:56.535Z,44.00
2022-08-10T11:57:02.970Z,43.80
2022-08-10T12:02:13.915Z,43.80
2022-08-10T12:10:01.774Z,44.50
2022-08-10T12:12:59.694Z,42.90
2022-08-10T12:18:16.510Z,44.00
2022-08-10T12:23:32.277Z,43.20
2022-08-10T12:28:52.001Z,42.60
2022-08-10T12:34:17.874Z,43.90
2022-08-10T12:39:30.286Z,45.10
2022-08-10T12:44:43.830Z,45.20
2022-08-10T12:50:29.600Z,45.60
2022-08-10T12:55:25.601Z,46.40
2022-08-10T13:00:35.045Z,47.80
2022-08-10T13:06:02.573Z,47.60
2022-08-10T13:12:34.005Z,45.60
2022-08-10T13:16:39.130Z,47.20
2022-08-10T13:21:46.117Z,47.00
2022-08-10T13:27:25.080Z,45.40
2022-08-10T13:32:27.081Z,44.10
2022-08-10T13:37:35.909Z,44.60
2022-08-10T13:42:42.746Z,44.00
2022-08-10T13:47:52.115Z,42.20
2022-08-10T13:53:01.478Z,42.30
2022-08-10T13:58:06.874Z,43.60
2022-08-10T14:03:13.526Z,45.00
2022-08-10T14:08:24.163Z,45.20
2022-08-10T14:13:29.464Z,45.40
2022-08-10T14:18:35.807Z,47.30
2022-08-10T14:23:52.876Z,45.90
2022-08-10T14:29:07.562Z,43.30
2022-08-10T14:34:14.437Z,43.40
2022-08-10T14:39:26.974Z,43.80
2022-08-10T14:44:42.473Z,44.90
2022-08-10T14:49:57.089Z,41.60
2022-08-10T14:55:19.667Z,43.50
2022-08-10T15:00:33.067Z,44.60
2022-08-10T15:05:41.893Z,43.40
2022-08-10T15:10:51.109Z,42.80
2022-08-10T15:16:11.885Z,44.40
2022-08-10T15:21:18.162Z,45.60
2022-08-10T15:26:29.251Z,45.30
2022-08-10T15:31:56.839Z,44.90
2022-08-10T15:37:39.732Z,44.70
2022-08-10T15:42:41.493Z,44.30
2022-08-10T15:48:03.409Z,45.20
2022-08-10T15:53:17.039Z,44.30
2022-08-10T15:58:37.711Z,44.10
2022-08-10T16:03:54.562Z,41.80
2022-08-10T16:10:23.483Z,41.90
2022-08-10T16:14:38.650Z,42.20
2022-08-10T16:19:53.095Z,41.90
2022-08-10T16:24:58.980Z,41.90
2022-08-10T16:30:08.515Z,42.30
2022-08-10T16:35:18.727Z,41.70
2022-08-10T16:40:28.015Z,40.80
2022-08-10T16:45:40.934Z,40.60
2022-08-10T16:50:56.326Z,40.60
2022-08-10T16:56:06.148Z,41.10
2022-08-10T17:01:18.107Z,40.90
2022-08-10T17:06:30.009Z,39.90
2022-08-10T17:11:38.816Z,39.00
2022-08-10T17:16:51.877Z,35.70
2022-08-10T17:22:00.404Z,33.10
2022-08-10T17:28:04.125Z,31.60
2022-08-10T17:32:45.202Z,30.70
2022-08-10T17:37:58.078Z,30.20
2022-08-10T17:43:04.376Z,29.70
2022-08-10T17:48:10.869Z,29.60
2022-08-10T17:53:19.739Z,29.20
2022-08-10T17:58:27.139Z,28.90
2022-08-10T18:03:37.028Z,28.70
2022-08-10T18:08:47.717Z,28.50
2022-08-10T18:14:02.624Z,28.20
2022-08-10T18:19:12.656Z,28.00
2022-08-10T18:24:21.985Z,27.70
2022-08-10T18:29:29.912Z,27.50
2022-08-10T18:34:39.968Z,27.30
2022-08-10T18:39:50.583Z,27.00
2022-08-10T18:45:02.390Z,26.70
2022-08-10T18:50:14.089Z,26.60
2022-08-10T18:55:27.742Z,26.30
2022-08-10T19:01:07.098Z,26.10
2022-08-10T19:06:38.085Z,25.80
2022-08-10T19:12:06.175Z,25.50
2022-08-10T19:18:03.020Z,25.30
2022-08-10T19:23:28.006Z,25.10
2022-08-10T19:28:47.426Z,24.90
2022-08-10T19:34:12.769Z,24.70
2022-08-10T19:39:28.783Z,24.50
2022-08-10T19:44:46.141Z,24.40
2022-08-10T19:50:01.256Z,24.30
2022-08-10T19:55:18.865Z,24.20
2022-08-10T20:00:36.541Z,24.10
2022-08-10T20:06:19.169Z,24.00
2022-08-10T20:11:45.156Z,23.80
2022-08-10T20:16:59.949Z,23.60
2022-08-10T20:22:13.774Z,23.40
2022-08-10T20:27:58.631Z,23.20
2022-08-10T20:33:01.958Z,23.20
2022-08-10T20:38:12.167Z,23.00
2022-08-10T20:43:27.565Z,22.80
2022-08-10T20:48:44.079Z,22.70
2022-08-10T20:53:56.369Z,22.60
2022-08-10T20:59:33.425Z,22.50
2022-08-10T21:04:53.035Z,22.40
2022-08-10T21:10:16.286Z,22.30
2022-08-10T21:15:55.617Z,22.20
2022-08-10T21:21:16.539Z,22.20
2022-08-10T21:26:33.630Z,22.10
2022-08-10T21:32:15.425Z,22.10
2022-08-10T21:37:56.710Z,22.00
2022-08-10T21:43:32.175Z,21.90
2022-08-10T21:49:23.076Z,21.80
2022-08-10T21:54:57.459Z,21.70
2022-08-10T22:00:27.348Z,21.50
2022-08-10T22:05:57.820Z,21.50
2022-08-10T22:11:22.901Z,21.40
2022-08-10T22:17:01.127Z,21.30
2022-08-10T22:22:31.215Z,21.10
2022-08-10T22:27:57.616Z,21.00
2022-08-10T22:33:44.670Z,20.80
2022-08-10T22:40:10.134Z,20.70
2022-08-10T22:45:15.156Z,20.60
2022-08-10T22:50:28.271Z,20.60
2022-08-10T22:55:57.584Z,20.40
2022-08-10T23:01:11.803Z,20.40
2022-08-10T23:06:22.156Z,20.40
2022-08-10T23:11:33.865Z,20.30
2022-08-10T23:17:06.043Z,20.30
2022-08-10T23:22:15.681Z,20.20
2022-08-10T23:27:39.328Z,20.00
2022-08-10T23:32:48.916Z,19.90
2022-08-10T23:37:57.093Z,19.80
2022-08-10T23:43:05.550Z,19.70
2022-08-10T23:48:11.463Z,19.60
2022-08-10T23:53:26.220Z,19.60
2022-08-10T23:58:42.083Z,19.50
